Time;durP1;ratioP1;P1;durP2;ratioP2;P2;SDS_P1;SDS_P2;PMS_P1;PMS_P2;Temp;Humidity;BMP_temperature;BMP_pressure;BME280_temperature;BME280_humidity;BME280_pressure;Samples;Min_cycle;Max_cycle;Signal;HPM_P1;HPM_P2
2022/10/21 00:01:14;;;;;;;18.85;12.63;;;9.90;99.90;;;;;;5090157;28;20046;-48
2022/10/21 00:03:40;;;;;;;15.32;10.25;;;9.90;99.90;;;;;;5090839;28;20023;-49
2022/10/21 00:06:06;;;;;;;15.27;11.00;;;9.90;99.90;;;;;;5091117;28;20413;-49
2022/10/21 00:08:32;;;;;;;18.00;12.02;;;9.90;99.90;;;;;;5090971;28;20502;-52
2022/10/21 00:11:00;;;;;;;21.13;13.45;;;9.90;99.90;;;;;;5091059;28;20040;-50
2022/10/21 00:13:28;;;;;;;23.00;14.05;;;9.90;99.90;;;;;;5090534;28;20027;-48
2022/10/21 00:16:08;;;;;;;18.15;12.93;;;9.90;99.90;;;;;;5089632;28;20035;-48
2022/10/21 00:18:36;;;;;;;17.65;12.13;;;10.00;99.90;;;;;;5090931;28;20080;-49
2022/10/21 00:21:10;;;;;;;17.95;12.05;;;10.00;99.90;;;;;;5091239;28;20032;-50
2022/10/21 00:23:36;;;;;;;17.90;12.63;;;10.00;99.90;;;;;;5090608;28;20024;-50
2022/10/21 00:26:02;;;;;;;17.42;11.50;;;10.00;99.90;;;;;;5090898;28;20141;-48
2022/10/21 00:28:27;;;;;;;20.67;13.23;;;10.00;99.90;;;;;;5090760;28;20032;-48
2022/10/21 00:30:53;;;;;;;20.63;11.73;;;10.00;99.90;;;;;;5090844;28;20035;-48
2022/10/21 00:33:18;;;;;;;18.55;12.23;;;9.90;99.90;;;;;;5090852;28;20540;-51
2022/10/21 00:35:51;;;;;;;24.15;10.70;;;9.90;99.90;;;;;;5090757;28;20473;-48
2022/10/21 00:38:16;;;;;;;20.33;12.85;;;9.80;99.90;;;;;;5090789;28;20374;-48
2022/10/21 00:40:42;;;;;;;22.55;13.00;;;9.80;99.90;;;;;;5090634;28;20103;-48
2022/10/21 00:43:09;;;;;;;20.75;12.85;;;9.80;99.90;;;;;;5090765;28;20035;-48
2022/10/21 00:45:35;;;;;;;18.25;12.48;;;9.80;99.90;;;;;;5090617;28;20028;-48
2022/10/21 00:48:04;;;;;;;19.52;12.95;;;9.80;99.90;;;;;;5090495;28;20032;-48
2022/10/21 00:50:36;;;;;;;19.63;13.30;;;9.80;99.90;;;;;;5090643;28;20389;-48
2022/10/21 00:53:04;;;;;;;17.75;12.23;;;9.80;99.90;;;;;;5088995;28;20024;-49
2022/10/21 00:55:33;;;;;;;19.52;12.15;;;9.80;99.90;;;;;;5090510;28;20420;-48
2022/10/21 00:58:01;;;;;;;22.83;14.47;;;9.80;99.90;;;;;;5090568;28;20055;-50
2022/10/21 01:00:26;;;;;;;20.95;13.38;;;9.70;99.90;;;;;;5090458;28;20056;-49
2022/10/21 01:02:52;;;;;;;21.63;14.13;;;9.80;99.90;;;;;;5090003;28;20063;-49
2022/10/21 01:05:18;;;;;;;19.25;13.23;;;9.80;99.90;;;;;;5089208;28;20040;-51
2022/10/21 01:07:46;;;;;;;25.42;14.55;;;9.80;99.90;;;;;;5090289;28;20025;-51
2022/10/21 01:10:12;;;;;;;22.13;14.90;;;9.80;99.90;;;;;;5089278;28;20024;-50
2022/10/21 01:12:51;;;;;;;20.80;13.93;;;9.80;99.90;;;;;;5092312;28;20031;-50
2022/10/21 01:15:39;;;;;;;18.63;13.05;;;9.80;99.90;;;;;;5094375;28;20027;-49
2022/10/21 01:18:19;;;;;;;20.05;12.77;;;9.80;99.90;;;;;;5094620;28;20039;-48
2022/10/21 01:21:22;;;;;;;27.50;15.10;;;9.70;99.90;;;;;;5094298;28;20050;-51
2022/10/21 01:24:03;;;;;;;25.52;15.07;;;9.70;99.90;;;;;;5094263;28;20484;-48
2022/10/21 01:26:42;;;;;;;24.92;14.73;;;9.70;99.90;;;;;;5094170;28;20031;-52
2022/10/21 01:29:45;;;;;;;24.17;15.75;;;9.80;99.90;;;;;;5094128;28;20093;-51
2022/10/21 01:32:19;;;;;;;23.40;14.75;;;9.80;99.90;;;;;;5093543;28;20030;-52
2022/10/21 01:35:05;;;;;;;23.92;15.73;;;9.70;99.90;;;;;;5094069;28;20052;-49
2022/10/21 01:38:20;;;;;;;25.15;14.32;;;9.70;99.90;;;;;;5093957;28;20020;-49
2022/10/21 01:40:58;;;;;;;25.02;16.45;;;9.70;99.90;;;;;;5067405;28;20032;-51
2022/10/21 01:43:38;;;;;;;28.02;16.70;;;9.70;99.90;;;;;;5093288;28;20035;-52
2022/10/21 01:46:12;;;;;;;22.83;15.05;;;9.70;99.90;;;;;;5092751;28;20040;-52
2022/10/21 01:48:43;;;;;;;18.90;13.82;;;9.70;99.90;;;;;;5093028;28;20112;-49
2022/10/21 01:51:11;;;;;;;23.17;14.95;;;9.70;99.90;;;;;;5093579;28;20024;-48
2022/10/21 01:53:45;;;;;;;22.13;14.25;;;9.70;99.90;;;;;;5093231;28;20024;-50
2022/10/21 01:56:12;;;;;;;23.10;13.73;;;9.70;99.90;;;;;;5093663;28;20052;-48
2022/10/21 01:58:41;;;;;;;21.88;13.38;;;9.70;99.90;;;;;;5093634;28;20396;-48
2022/10/21 02:01:09;;;;;;;21.48;13.75;;;9.70;99.90;;;;;;5093572;28;20081;-50
2022/10/21 02:03:39;;;;;;;22.17;13.25;;;9.80;99.90;;;;;;5092859;28;20024;-48
2022/10/21 02:06:05;;;;;;;25.00;16.00;;;9.80;99.90;;;;;;5093661;28;20024;-52
2022/10/21 02:08:30;;;;;;;22.10;14.63;;;9.90;99.90;;;;;;5093275;28;20032;-48
2022/10/21 02:11:00;;;;;;;24.90;14.38;;;9.90;99.90;;;;;;5093378;28;20027;-48
2022/10/21 02:13:31;;;;;;;22.75;13.95;;;10.00;99.90;;;;;;5092944;28;20028;-48
2022/10/21 02:16:01;;;;;;;19.75;13.13;;;10.00;99.90;;;;;;5093209;28;20055;-49
2022/10/21 02:18:27;;;;;;;24.52;14.93;;;10.00;99.90;;;;;;5093123;28;20035;-48
2022/10/21 02:20:59;;;;;;;20.52;12.55;;;10.10;99.90;;;;;;5093430;28;20389;-50
2022/10/21 02:23:38;;;;;;;20.13;14.63;;;10.10;99.90;;;;;;5090616;28;20056;-48
2022/10/21 02:26:04;;;;;;;18.90;13.32;;;10.10;99.90;;;;;;5093102;28;20468;-49
2022/10/21 02:28:30;;;;;;;21.20;14.00;;;10.10;99.90;;;;;;5092901;28;20032;-48
2022/10/21 02:31:09;;;;;;;19.73;13.25;;;10.10;99.90;;;;;;5092973;28;20039;-50
2022/10/21 02:34:03;;;;;;;21.77;13.35;;;10.10;99.90;;;;;;5091245;28;20070;-52
2022/10/21 02:36:34;;;;;;;22.55;14.23;;;10.10;99.90;;;;;;5080704;28;20504;-51
2022/10/21 02:39:10;;;;;;;18.85;13.07;;;10.10;99.90;;;;;;5093065;28;20046;-48
2022/10/21 02:41:39;;;;;;;21.90;14.55;;;10.10;99.90;;;;;;5092350;28;20031;-50
2022/10/21 02:44:05;;;;;;;20.55;13.98;;;10.10;99.90;;;;;;5091414;28;20389;-49
2022/10/21 02:46:36;;;;;;;22.02;14.43;;;10.00;99.90;;;;;;5092720;28;20016;-51
2022/10/21 02:49:02;;;;;;;19.25;13.15;;;10.00;99.90;;;;;;5091760;28;20366;-49
2022/10/21 02:51:28;;;;;;;20.38;13.85;;;10.10;99.90;;;;;;5092034;28;20051;-50
2022/10/21 02:53:53;;;;;;;21.98;14.77;;;10.00;99.90;;;;;;5092470;28;20028;-50
2022/10/21 02:56:19;;;;;;;17.73;12.82;;;10.00;99.90;;;;;;5092330;28;20063;-50
2022/10/21 02:58:44;;;;;;;23.67;15.75;;;10.00;99.90;;;;;;5090957;28;20031;-49
2022/10/21 03:01:09;;;;;;;23.65;14.75;;;10.10;99.90;;;;;;5092407;28;20032;-51
2022/10/21 03:03:35;;;;;;;20.63;13.63;;;10.10;99.90;;;;;;5091646;28;20477;-48
2022/10/21 03:06:00;;;;;;;19.55;12.98;;;10.10;99.90;;;;;;5092612;28;20109;-48
2022/10/21 03:08:26;;;;;;;21.45;14.52;;;10.20;99.90;;;;;;5092379;28;20024;-49
2022/10/21 03:10:52;;;;;;;17.30;13.45;;;10.20;99.90;;;;;;5092153;28;20012;-52
2022/10/21 03:13:17;;;;;;;21.27;13.68;;;10.20;99.90;;;;;;5091686;28;20480;-52
2022/10/21 03:15:43;;;;;;;18.20;12.55;;;10.20;99.90;;;;;;5092156;28;20096;-51
2022/10/21 03:18:08;;;;;;;19.35;13.82;;;10.30;99.90;;;;;;5091959;28;20469;-50
2022/10/21 03:20:34;;;;;;;20.10;13.82;;;10.30;99.90;;;;;;5091992;28;20028;-49
2022/10/21 03:22:59;;;;;;;24.42;14.65;;;10.30;99.90;;;;;;5091385;28;20028;-48
2022/10/21 03:25:25;;;;;;;19.13;13.43;;;10.30;99.90;;;;;;5091895;28;20035;-49
2022/10/21 03:27:50;;;;;;;18.20;12.77;;;10.30;99.90;;;;;;5091749;28;20031;-50
2022/10/21 03:30:16;;;;;;;20.25;14.77;;;10.30;99.90;;;;;;5091829;28;20109;-49
2022/10/21 03:32:42;;;;;;;27.73;13.50;;;10.30;99.90;;;;;;5091252;28;20032;-49
2022/10/21 03:35:08;;;;;;;21.40;13.95;;;10.30;99.90;;;;;;5090156;28;20055;-50
2022/10/21 03:37:33;;;;;;;19.73;13.45;;;10.30;99.90;;;;;;5091932;28;20036;-49
2022/10/21 03:39:59;;;;;;;20.42;13.35;;;10.30;99.90;;;;;;5090284;28;20443;-51
2022/10/21 03:42:25;;;;;;;19.20;13.63;;;10.30;99.90;;;;;;5091145;28;20688;-49
2022/10/21 03:44:51;;;;;;;18.50;13.93;;;10.30;99.90;;;;;;5091494;28;20034;-50
2022/10/21 03:47:16;;;;;;;19.83;13.90;;;10.30;99.90;;;;;;5091431;28;20266;-48
2022/10/21 03:49:42;;;;;;;25.90;16.00;;;10.30;99.90;;;;;;5090452;28;20106;-48
2022/10/21 03:52:07;;;;;;;22.00;15.02;;;10.20;99.90;;;;;;5091023;28;20028;-49
2022/10/21 03:54:33;;;;;;;22.13;14.50;;;10.20;99.90;;;;;;5091141;28;20032;-49
2022/10/21 03:56:58;;;;;;;18.85;14.38;;;10.20;99.90;;;;;;5091288;28;20081;-49
2022/10/21 03:59:24;;;;;;;20.85;13.55;;;10.20;99.90;;;;;;5091484;28;20503;-48
2022/10/21 04:01:49;;;;;;;24.40;14.63;;;10.20;99.90;;;;;;5091226;28;20081;-50
2022/10/21 04:04:15;;;;;;;19.13;14.02;;;10.10;99.90;;;;;;5091270;28;20043;-49
2022/10/21 04:06:40;;;;;;;20.08;13.60;;;10.10;99.90;;;;;;5091209;28;20039;-48
2022/10/21 04:09:06;;;;;;;18.90;13.77;;;10.10;99.90;;;;;;5091147;28;20024;-49
2022/10/21 04:11:31;;;;;;;23.88;14.32;;;10.20;99.90;;;;;;5090418;28;20020;-49
2022/10/21 04:13:56;;;;;;;20.55;14.02;;;10.20;99.90;;;;;;5091188;28;20543;-51
2022/10/21 04:16:22;;;;;;;20.63;14.15;;;10.20;99.90;;;;;;5091016;28;20040;-51
2022/10/21 04:18:48;;;;;;;23.75;15.45;;;10.20;99.90;;;;;;5089672;28;20107;-49
2022/10/21 04:21:13;;;;;;;20.10;14.07;;;10.20;99.90;;;;;;5090666;28;20039;-48
2022/10/21 04:23:39;;;;;;;20.50;13.70;;;10.20;99.90;;;;;;5090781;28;20032;-48
2022/10/21 04:26:05;;;;;;;17.77;13.07;;;10.30;99.90;;;;;;5090862;28;20024;-50
2022/10/21 04:28:30;;;;;;;21.95;14.98;;;10.30;99.90;;;;;;5090808;28;20035;-50
2022/10/21 04:30:56;;;;;;;20.60;13.35;;;10.30;99.90;;;;;;5091042;28;20435;-51
2022/10/21 04:33:21;;;;;;;18.38;13.88;;;10.30;99.90;;;;;;5090750;28;20385;-50
2022/10/21 04:35:47;;;;;;;19.73;14.10;;;10.30;99.90;;;;;;5091118;28;20020;-48
2022/10/21 04:38:13;;;;;;;18.48;13.23;;;10.30;99.90;;;;;;5090948;28;20078;-48
2022/10/21 04:40:38;;;;;;;18.50;12.75;;;10.30;99.90;;;;;;5090767;28;20438;-49
2022/10/21 04:43:04;;;;;;;18.95;13.77;;;10.40;99.90;;;;;;5090623;28;20504;-51
2022/10/21 04:45:29;;;;;;;18.45;13.30;;;10.40;99.90;;;;;;5090759;28;20064;-51
2022/10/21 04:47:55;;;;;;;23.58;14.70;;;10.40;99.90;;;;;;5093529;28;20023;-50
2022/10/21 04:50:20;;;;;;;22.35;15.07;;;10.40;99.90;;;;;;5093813;28;20051;-50
2022/10/21 04:52:46;;;;;;;22.10;14.88;;;10.50;99.90;;;;;;5094470;28;20066;-50
2022/10/21 04:55:11;;;;;;;19.25;12.88;;;10.50;99.90;;;;;;5095033;28;20020;-51
2022/10/21 04:57:36;;;;;;;20.92;13.75;;;10.50;99.90;;;;;;5095021;28;20052;-51
2022/10/21 05:00:04;;;;;;;27.23;14.82;;;10.60;99.90;;;;;;5093792;28;20264;-47
2022/10/21 05:02:29;;;;;;;21.17;13.93;;;10.60;99.90;;;;;;5094242;28;20099;-50
2022/10/21 05:04:55;;;;;;;23.52;15.48;;;10.60;99.90;;;;;;5094667;28;20151;-50
2022/10/21 05:07:20;;;;;;;21.92;15.35;;;10.70;99.90;;;;;;5094703;28;20078;-49
2022/10/21 05:09:46;;;;;;;24.63;15.68;;;10.70;99.90;;;;;;5094881;28;20024;-52
2022/10/21 05:12:11;;;;;;;22.00;14.20;;;10.70;99.90;;;;;;5094373;28;20031;-49
2022/10/21 05:14:37;;;;;;;21.15;14.90;;;10.80;99.90;;;;;;5094767;28;20032;-49
2022/10/21 05:17:02;;;;;;;22.33;15.75;;;10.80;99.90;;;;;;5094457;28;20024;-49
2022/10/21 05:19:28;;;;;;;24.17;15.63;;;10.80;99.90;;;;;;5094332;28;20531;-49
2022/10/21 05:21:53;;;;;;;26.98;17.42;;;10.80;99.90;;;;;;5093828;28;20034;-51
2022/10/21 05:24:19;;;;;;;21.77;14.38;;;10.90;99.90;;;;;;5092922;28;20552;-49
2022/10/21 05:26:44;;;;;;;38.38;17.88;;;10.90;99.90;;;;;;5094073;28;20030;-49
2022/10/21 05:29:10;;;;;;;30.70;18.40;;;10.90;99.90;;;;;;5094090;28;20091;-50
2022/10/21 05:31:35;;;;;;;25.88;15.48;;;10.90;99.90;;;;;;5093735;28;20020;-48
2022/10/21 05:34:00;;;;;;;20.08;14.98;;;11.00;99.90;;;;;;5094060;28;20031;-50
2022/10/21 05:36:26;;;;;;;22.77;15.25;;;11.00;99.90;;;;;;5093943;28;20366;-51
2022/10/21 05:38:52;;;;;;;28.38;17.23;;;11.00;99.90;;;;;;5093896;28;20028;-52
2022/10/21 05:41:18;;;;;;;23.98;16.90;;;11.10;99.90;;;;;;5093544;28;20103;-48
2022/10/21 05:43:43;;;;;;;24.17;17.27;;;11.10;99.90;;;;;;5093685;28;20119;-49
2022/10/21 05:46:09;;;;;;;22.95;14.93;;;11.10;99.90;;;;;;5093822;28;20036;-48
2022/10/21 05:48:35;;;;;;;24.60;16.20;;;11.10;99.90;;;;;;5091480;28;20020;-49
2022/10/21 05:51:01;;;;;;;26.05;16.65;;;11.20;99.90;;;;;;5093691;28;20171;-49
2022/10/21 05:53:27;;;;;;;20.02;15.15;;;11.20;99.90;;;;;;5093424;28;20235;-49
2022/10/21 05:56:01;;;;;;;19.58;14.25;;;11.20;99.90;;;;;;5093632;28;20389;-50
2022/10/21 05:58:28;;;;;;;22.27;14.75;;;11.20;99.90;;;;;;5093894;28;20451;-48
2022/10/21 06:00:53;;;;;;;20.85;13.88;;;11.20;99.90;;;;;;5094040;28;20093;-50
2022/10/21 06:03:23;;;;;;;23.55;15.52;;;11.10;99.90;;;;;;5092900;28;20477;-51
2022/10/21 06:05:49;;;;;;;20.20;15.00;;;11.20;99.90;;;;;;5093553;28;20032;-51
2022/10/21 06:08:16;;;;;;;21.23;14.02;;;11.10;99.90;;;;;;5093292;28;20524;-49
2022/10/21 06:10:42;;;;;;;18.73;13.90;;;11.10;99.90;;;;;;5093303;28;20016;-52
2022/10/21 06:13:07;;;;;;;20.13;14.90;;;11.10;99.90;;;;;;5093231;28;20462;-50
2022/10/21 06:15:33;;;;;;;20.77;14.68;;;11.10;99.90;;;;;;5093231;28;20047;-48
2022/10/21 06:17:58;;;;;;;23.80;15.52;;;11.10;99.90;;;;;;5092045;28;20027;-48
2022/10/21 06:20:24;;;;;;;25.63;16.33;;;11.10;99.90;;;;;;5093440;28;20040;-49
2022/10/21 06:22:49;;;;;;;21.77;14.82;;;11.10;99.90;;;;;;5092860;28;20112;-50
2022/10/21 06:25:15;;;;;;;24.08;15.90;;;11.10;99.90;;;;;;5093136;28;20378;-50
2022/10/21 06:27:40;;;;;;;25.45;15.73;;;11.10;99.90;;;;;;5091649;28;20034;-48
2022/10/21 06:30:06;;;;;;;19.95;14.18;;;11.10;99.90;;;;;;5092909;28;20050;-48
2022/10/21 06:32:32;;;;;;;20.42;14.05;;;11.20;99.90;;;;;;5092439;28;20028;-48
2022/10/21 06:34:57;;;;;;;24.20;14.85;;;11.20;99.90;;;;;;5092908;28;20028;-49
2022/10/21 06:37:23;;;;;;;20.05;13.70;;;11.20;99.90;;;;;;5092867;28;20067;-50
2022/10/21 06:39:48;;;;;;;20.67;13.63;;;11.20;99.90;;;;;;5092803;28;20358;-50
2022/10/21 06:42:14;;;;;;;20.08;12.63;;;11.20;99.90;;;;;;5092381;28;20035;-50
2022/10/21 06:44:41;;;;;;;23.67;14.00;;;11.20;99.90;;;;;;5092769;28;20028;-48
2022/10/21 06:47:07;;;;;;;18.48;12.85;;;11.20;99.90;;;;;;5092468;28;20342;-49
2022/10/21 06:49:32;;;;;;;19.77;13.30;;;11.30;99.90;;;;;;5091465;28;20016;-47
2022/10/21 06:51:58;;;;;;;20.50;13.98;;;11.30;99.90;;;;;;5092207;28;20016;-48
2022/10/21 06:54:23;;;;;;;17.52;12.77;;;11.30;99.90;;;;;;5092543;28;20029;-51
2022/10/21 06:56:49;;;;;;;20.50;13.57;;;11.30;99.90;;;;;;5091029;28;20024;-48
2022/10/21 06:59:14;;;;;;;21.08;13.15;;;11.40;99.90;;;;;;5092281;28;20412;-49
2022/10/21 07:01:40;;;;;;;22.30;14.35;;;11.40;99.90;;;;;;5092074;28;20044;-47
2022/10/21 07:04:05;;;;;;;16.58;12.63;;;11.50;99.90;;;;;;5092279;28;20496;-47
2022/10/21 07:06:32;;;;;;;24.65;14.88;;;11.50;99.90;;;;;;5092476;28;20016;-48
2022/10/21 07:08:57;;;;;;;23.73;15.77;;;11.60;99.90;;;;;;5091998;28;20336;-47
2022/10/21 07:11:23;;;;;;;19.15;13.95;;;11.60;99.90;;;;;;5091450;28;20469;-47
2022/10/21 07:13:48;;;;;;;26.42;15.13;;;11.70;99.90;;;;;;5092005;28;20028;-49
2022/10/21 07:16:28;;;;;;;23.92;16.20;;;11.80;99.90;;;;;;5091811;28;20020;-50
2022/10/21 07:18:55;;;;;;;22.73;16.23;;;11.80;99.90;;;;;;5092251;28;20080;-49
2022/10/21 07:21:23;;;;;;;27.63;16.80;;;11.90;99.90;;;;;;5091579;28;20258;-49
2022/10/21 07:23:50;;;;;;;24.80;15.75;;;11.90;99.90;;;;;;5091953;28;20277;-48
2022/10/21 07:26:16;;;;;;;21.45;14.48;;;12.00;99.90;;;;;;5091789;28;20090;-49
2022/10/21 07:28:46;;;;;;;22.88;14.80;;;12.00;99.90;;;;;;5091960;28;20024;-48
2022/10/21 07:31:18;;;;;;;22.05;14.88;;;12.10;99.90;;;;;;5090454;28;20020;-47
2022/10/21 07:33:44;;;;;;;20.15;14.35;;;12.10;99.90;;;;;;5092064;28;20103;-47
2022/10/21 07:36:17;;;;;;;19.25;14.38;;;12.20;99.90;;;;;;5092035;28;20150;-49
2022/10/21 07:38:45;;;;;;;23.48;16.77;;;12.20;99.90;;;;;;5091792;28;20103;-48
2022/10/21 07:41:23;;;;;;;21.25;16.33;;;12.30;99.90;;;;;;5091679;28;20016;-52
2022/10/21 07:43:50;;;;;;;23.85;15.65;;;12.30;99.90;;;;;;5091861;28;20025;-49
2022/10/21 07:46:17;;;;;;;21.98;15.13;;;12.40;99.90;;;;;;5091528;28;20028;-49
2022/10/21 07:48:43;;;;;;;23.83;15.63;;;12.50;99.90;;;;;;5090438;28;20117;-49
2022/10/21 07:51:12;;;;;;;20.33;14.93;;;12.60;99.90;;;;;;5091346;28;20020;-48
2022/10/21 07:53:38;;;;;;;18.58;14.23;;;12.70;99.90;;;;;;5089885;28;20105;-49
2022/10/21 07:56:14;;;;;;;23.55;15.35;;;12.90;99.90;;;;;;5091643;28;20020;-50
2022/10/21 07:58:40;;;;;;;17.52;12.77;;;12.90;99.90;;;;;;5091294;28;20099;-50
2022/10/21 08:01:08;;;;;;;15.98;12.25;;;13.00;99.90;;;;;;5091409;28;20028;-48
2022/10/21 08:03:34;;;;;;;25.58;13.35;;;13.10;99.90;;;;;;5090705;28;20106;-49
2022/10/21 08:05:59;;;;;;;25.42;13.68;;;13.10;99.90;;;;;;5091555;28;20352;-48
2022/10/21 08:08:25;;;;;;;21.48;13.63;;;13.30;99.90;;;;;;5091128;28;20477;-49
2022/10/21 08:10:52;;;;;;;18.98;13.45;;;13.40;99.90;;;;;;5091107;28;20028;-49
2022/10/21 08:13:18;;;;;;;18.33;13.57;;;13.50;99.90;;;;;;5090915;28;20020;-49
2022/10/21 08:15:45;;;;;;;23.33;13.18;;;13.70;99.90;;;;;;5091048;28;20503;-48
2022/10/21 08:18:11;;;;;;;19.27;13.13;;;13.70;99.90;;;;;;5090184;28;20038;-48
2022/10/21 08:20:44;;;;;;;18.10;12.52;;;13.90;99.90;;;;;;5090841;28;20115;-49
2022/10/21 08:23:11;;;;;;;20.45;12.10;;;14.10;99.90;;;;;;5090131;28;20027;-49
2022/10/21 08:25:37;;;;;;;16.58;11.75;;;14.30;99.90;;;;;;5091247;28;20016;-53
2022/10/21 08:28:04;;;;;;;17.10;11.35;;;14.50;99.90;;;;;;5090983;28;20431;-52
2022/10/21 08:30:31;;;;;;;13.88;10.20;;;14.80;99.90;;;;;;5090794;28;20020;-50
2022/10/21 08:32:57;;;;;;;14.05;9.98;;;15.00;99.90;;;;;;5090733;28;20362;-51
2022/10/21 08:35:24;;;;;;;16.50;9.85;;;15.30;99.90;;;;;;5089381;28;20477;-50
2022/10/21 08:37:49;;;;;;;13.23;9.02;;;15.50;99.90;;;;;;5090949;28;20405;-48
2022/10/21 08:40:15;;;;;;;19.23;9.27;;;15.80;99.90;;;;;;5090806;28;20028;-48
2022/10/21 08:42:43;;;;;;;11.02;8.13;;;15.90;99.90;;;;;;5090348;28;20028;-48
2022/10/21 08:45:18;;;;;;;11.73;8.35;;;16.10;99.90;;;;;;5090740;28;20024;-49
2022/10/21 08:47:51;;;;;;;11.55;7.60;;;16.20;99.90;;;;;;5090610;28;20029;-51
2022/10/21 08:50:36;;;;;;;10.05;7.53;;;16.30;99.90;;;;;;5089605;28;20473;-49
2022/10/21 08:53:28;;;;;;;10.35;7.45;;;16.40;99.90;;;;;;5090293;28;20393;-49
2022/10/21 08:56:03;;;;;;;9.70;7.32;;;16.50;99.90;;;;;;5090937;28;20024;-52
2022/10/21 08:58:29;;;;;;;10.50;8.55;;;16.50;99.90;;;;;;5090530;28;20093;-52
2022/10/21 09:01:28;;;;;;;10.40;8.18;;;16.60;99.90;;;;;;5090671;28;20020;-50
2022/10/21 09:04:06;;;;;;;11.50;7.95;;;16.70;99.90;;;;;;5090395;28;20028;-49
2022/10/21 09:06:42;;;;;;;14.27;10.13;;;16.90;99.90;;;;;;5090469;28;20024;-49
2022/10/21 09:09:31;;;;;;;15.68;9.80;;;17.00;99.90;;;;;;5090421;28;20104;-49
2022/10/21 09:12:20;;;;;;;11.95;8.85;;;17.10;99.90;;;;;;5088750;28;20027;-49
2022/10/21 09:14:58;;;;;;;10.48;7.60;;;17.30;99.90;;;;;;5090573;28;20024;-52
2022/10/21 09:17:48;;;;;;;12.32;7.47;;;17.40;99.90;;;;;;5090427;28;20515;-49
2022/10/21 09:20:55;;;;;;;10.38;7.03;;;17.50;99.90;;;;;;5090425;28;20300;-52
2022/10/21 09:23:44;;;;;;;9.07;6.45;;;17.80;99.90;;;;;;5089989;28;20510;-50
2022/10/21 09:26:20;;;;;;;9.27;5.22;;;18.50;99.90;;;;;;5090324;28;20098;-50
2022/10/21 09:28:46;;;;;;;7.07;5.40;;;19.40;99.90;;;;;;5090273;28;20526;-51
2022/10/21 09:31:16;;;;;;;7.50;4.65;;;20.30;99.90;;;;;;5090367;28;20063;-49
2022/10/21 09:33:46;;;;;;;11.07;4.80;;;21.30;99.90;;;;;;5092408;28;20515;-51
2022/10/21 09:36:18;;;;;;;7.53;4.38;;;22.10;99.90;;;;;;5094188;28;20024;-52
2022/10/21 09:39:00;;;;;;;16.50;5.63;;;22.40;99.90;;;;;;5094090;28;20032;-51
2022/10/21 09:41:35;;;;;;;9.32;4.97;;;22.20;99.90;;;;;;5093610;28;20484;-51
2022/10/21 09:44:00;;;;;;;5.38;4.50;;;22.60;99.90;;;;;;5094081;28;20396;-51
2022/10/21 09:46:26;;;;;;;6.88;4.55;;;22.40;99.90;;;;;;5093824;28;20025;-49
2022/10/21 09:48:54;;;;;;;10.45;4.88;;;22.40;99.90;;;;;;5093748;28;20028;-49
2022/10/21 09:51:33;;;;;;;7.75;4.15;;;21.60;99.90;;;;;;5091971;28;20109;-52
2022/10/21 09:54:06;;;;;;;6.65;4.22;;;21.40;99.90;;;;;;5093727;28;20012;-50
2022/10/21 09:56:50;;;;;;;9.98;4.68;;;21.20;99.90;;;;;;5093732;28;20027;-51
2022/10/21 09:59:20;;;;;;;9.00;4.38;;;21.10;99.90;;;;;;5093809;28;20032;-51
2022/10/21 10:01:46;;;;;;;6.90;3.78;;;20.90;99.90;;;;;;5091952;28;20106;-52
2022/10/21 10:04:32;;;;;;;8.57;4.47;;;21.40;99.90;;;;;;5093457;28;20615;-51
2022/10/21 10:07:16;;;;;;;8.57;4.97;;;21.40;99.90;;;;;;5093424;28;20389;-49
2022/10/21 10:09:45;;;;;;;7.97;4.10;;;21.30;99.90;;;;;;5093730;28;20258;-49
2022/10/21 10:12:22;;;;;;;7.30;4.50;;;22.20;99.90;;;;;;5093200;28;20503;-52
2022/10/21 10:14:48;;;;;;;5.35;3.78;;;22.70;99.90;;;;;;5093637;28;20426;-52
2022/10/21 10:17:22;;;;;;;6.60;3.85;;;23.90;99.90;;;;;;5093500;28;20032;-51
2022/10/21 10:20:18;;;;;;;9.32;3.53;;;24.90;98.90;;;;;;5093406;28;20414;-50
2022/10/21 10:22:57;;;;;;;7.70;4.68;;;25.80;97.50;;;;;;5080418;28;20040;-52
2022/10/21 10:25:25;;;;;;;8.00;3.83;;;25.80;94.90;;;;;;5093378;28;20027;-52
2022/10/21 10:27:53;;;;;;;4.55;3.25;;;26.50;94.80;;;;;;5091841;28;20092;-51
2022/10/21 10:30:21;;;;;;;9.95;4.43;;;27.10;93.90;;;;;;5093121;28;20020;-50
2022/10/21 10:32:52;;;;;;;14.65;4.75;;;25.40;92.40;;;;;;5092663;28;20530;-49
2022/10/21 10:35:30;;;;;;;12.90;4.28;;;23.80;95.20;;;;;;5093331;28;20687;-49
2022/10/21 10:37:57;;;;;;;11.48;4.68;;;22.80;97.00;;;;;;5093243;28;20024;-49
2022/10/21 10:40:27;;;;;;;6.45;3.67;;;21.80;99.60;;;;;;5093442;28;20048;-52
2022/10/21 10:43:19;;;;;;;12.70;4.63;;;21.50;99.90;;;;;;5092375;28;20485;-49
2022/10/21 10:45:57;;;;;;;10.10;4.45;;;21.10;99.90;;;;;;5084006;28;20769;-48
2022/10/21 10:48:32;;;;;;;7.68;4.82;;;20.50;99.90;;;;;;5091378;28;20548;-51
2022/10/21 10:50:58;;;;;;;7.32;4.78;;;20.10;99.90;;;;;;5092636;28;20108;-52
2022/10/21 10:53:35;;;;;;;11.80;5.18;;;19.80;99.90;;;;;;5092074;28;20055;-49
2022/10/21 10:56:19;;;;;;;14.77;5.28;;;19.50;99.90;;;;;;5092630;28;20024;-51
2022/10/21 10:59:00;;;;;;;10.55;5.03;;;19.00;99.90;;;;;;5092409;28;20035;-49
2022/10/21 11:01:31;;;;;;;7.35;4.20;;;18.90;99.90;;;;;;5091928;28;20032;-50
2022/10/21 11:04:07;;;;;;;9.82;4.85;;;19.10;99.90;;;;;;5092091;28;20048;-49
2022/10/21 11:06:41;;;;;;;9.95;4.72;;;19.10;99.90;;;;;;5092296;28;20089;-49
2022/10/21 11:09:07;;;;;;;8.85;5.25;;;18.90;99.90;;;;;;5090840;28;20067;-51
2022/10/21 11:11:41;;;;;;;11.45;4.85;;;19.00;99.90;;;;;;5091557;28;20066;-49
2022/10/21 11:14:13;;;;;;;10.43;4.75;;;18.70;99.90;;;;;;5092099;28;20047;-50
2022/10/21 11:16:50;;;;;;;10.73;4.50;;;18.60;99.90;;;;;;5091938;28;20020;-49
2022/10/21 11:19:51;;;;;;;8.63;4.50;;;18.60;99.90;;;;;;5090663;28;20024;-51
2022/10/21 11:22:40;;;;;;;9.52;5.10;;;18.60;99.90;;;;;;5058751;28;20075;-49
2022/10/21 11:25:17;;;;;;;8.93;4.95;;;18.50;99.90;;;;;;5091899;28;20132;-48
2022/10/21 11:28:11;;;;;;;8.80;4.03;;;18.40;99.90;;;;;;5091889;28;20561;-50
2022/10/21 11:30:55;;;;;;;7.05;4.63;;;18.40;99.90;;;;;;5092181;28;20111;-52
2022/10/21 11:33:42;;;;;;;9.77;4.30;;;18.30;99.90;;;;;;5091295;28;20071;-51
2022/10/21 11:36:25;;;;;;;9.30;4.63;;;18.10;99.90;;;;;;5092067;28;20361;-51
2022/10/21 11:39:09;;;;;;;8.10;4.50;;;18.00;99.90;;;;;;5091560;28;20480;-49
2022/10/21 11:41:43;;;;;;;8.70;4.45;;;18.10;99.90;;;;;;5091048;28;20505;-51
2022/10/21 11:44:38;;;;;;;7.05;4.63;;;18.00;99.90;;;;;;5091528;28;20035;-51
2022/10/21 11:47:14;;;;;;;10.05;4.50;;;18.00;99.90;;;;;;5091690;28;20485;-50
2022/10/21 11:49:49;;;;;;;9.23;5.43;;;18.00;99.90;;;;;;5090380;28;20447;-49
2022/10/21 11:52:24;;;;;;;10.63;5.43;;;17.90;99.90;;;;;;5091262;28;20599;-50
2022/10/21 11:55:08;;;;;;;11.48;5.10;;;17.70;99.90;;;;;;5091203;28;20027;-49
2022/10/21 11:58:12;;;;;;;8.25;4.47;;;17.60;99.90;;;;;;5091196;28;20460;-49
2022/10/21 12:01:00;;;;;;;11.93;5.20;;;17.70;99.90;;;;;;5091240;28;20063;-49
2022/10/21 12:03:52;;;;;;;15.95;6.65;;;17.70;99.90;;;;;;5070748;28;20040;-52
2022/10/21 12:06:40;;;;;;;7.55;4.88;;;17.60;99.90;;;;;;5091118;28;20020;-52
2022/10/21 12:09:18;;;;;;;6.53;4.38;;;17.60;99.90;;;;;;5091163;28;20397;-50
2022/10/21 12:11:56;;;;;;;9.15;4.63;;;17.60;99.90;;;;;;5090584;28;20031;-50
2022/10/21 12:14:35;;;;;;;9.23;5.05;;;17.70;99.90;;;;;;5091240;28;20051;-51
2022/10/21 12:17:06;;;;;;;7.28;4.53;;;17.70;99.90;;;;;;5091145;28;20022;-48
2022/10/21 12:19:33;;;;;;;10.55;4.90;;;17.60;99.90;;;;;;5091172;28;20046;-52
2022/10/21 12:21:59;;;;;;;6.30;4.40;;;17.60;99.90;;;;;;5090369;28;20052;-49
2022/10/21 12:24:43;;;;;;;9.63;4.97;;;17.50;99.90;;;;;;5090893;28;20558;-49
2022/10/21 12:27:21;;;;;;;9.30;4.95;;;17.40;99.90;;;;;;5090811;28;20020;-50
2022/10/21 12:30:09;;;;;;;14.18;5.38;;;17.40;99.90;;;;;;5090870;28;20035;-50
2022/10/21 12:32:49;;;;;;;10.75;5.00;;;17.40;99.90;;;;;;5090469;28;20500;-48
2022/10/21 12:35:25;;;;;;;12.82;5.05;;;17.30;99.90;;;;;;5091162;28;20032;-52
2022/10/21 12:37:51;;;;;;;7.68;4.63;;;17.30;99.90;;;;;;5091196;28;20481;-50
2022/10/21 12:40:36;;;;;;;9.50;5.43;;;17.20;99.90;;;;;;5090697;28;20145;-50
2022/10/21 12:43:19;;;;;;;20.70;13.80;;;17.20;99.90;;;;;;5090206;28;20031;-52
2022/10/21 12:45:46;;;;;;;9.85;6.20;;;17.10;99.90;;;;;;5090567;28;20043;-50
2022/10/21 12:48:31;;;;;;;12.00;5.93;;;17.10;99.90;;;;;;5090419;28;20069;-49
2022/10/21 12:51:04;;;;;;;11.73;5.60;;;17.00;99.90;;;;;;5090020;28;20020;-47
2022/10/21 12:53:40;;;;;;;10.30;5.10;;;17.10;99.90;;;;;;5089991;28;20024;-50